Terminal Aerodrome Forecast
Issued by NWS

Home | Current Version | Previous Version | Text Only | Print | Product List | Glossary On
Versions: 1 2 3 4 5 6 7 8 9 10 11 12 13 14 15 16 17 18 19 20 21 22 23
000
FTUS46 KPQR 042326
TAFONP
TAF
KONP 042326Z 0500/0524 36018G26KT P6SM VCSH SCT015 BKN025
     FM050200 36014G22KT P6SM VCSH SCT015 OVC025
     FM050400 35008KT P6SM VCSH BKN015 OVC025
     FM051800 35015G25KT P6SM VCSH SCT022 OVC035=

USA.gov is the U.S. government's official web portal to all federal, state and local government web resources and services.